createdAt,value
2022-12-03T00:18:13.300Z,100509.94
2022-12-03T01:17:57.158Z,100439.28
2022-12-03T01:25:37.229Z,100459.09
2022-12-03T01:32:51.058Z,100451.50
2022-12-03T01:39:22.136Z,100467.09
2022-12-03T01:45:36.521Z,100452.28
2022-12-03T01:48:04.280Z,100457.53
2022-12-03T01:50:54.949Z,100459.44
2022-12-03T01:53:25.023Z,100434.19
2022-12-03T02:48:07.423Z,100417.25
2022-12-03T02:50:38.083Z,100412.22
2022-12-03T02:53:12.708Z,100417.88
2022-12-03T02:55:42.516Z,100416.81
2022-12-03T03:01:57.502Z,100410.88
2022-12-03T03:04:38.933Z,100413.41
2022-12-03T03:07:49.855Z,100419.72
2022-12-03T03:10:25.597Z,100393.16
2022-12-03T03:13:54.420Z,100407.25
2022-12-03T03:20:41.806Z,100406.66
2022-12-03T03:28:01.028Z,100408.75
2022-12-03T03:35:34.944Z,100396.97
2022-12-03T04:01:52.550Z,100385.66
2022-12-03T04:20:28.829Z,100378.69
2022-12-03T04:27:06.632Z,100362.50
2022-12-03T04:29:38.408Z,100353.44
2022-12-03T04:32:43.950Z,100363.97
2022-12-03T04:36:02.437Z,100364.63
2022-12-03T04:42:58.184Z,100363.78
2022-12-03T04:49:06.869Z,100344.69
2022-12-03T04:55:56.295Z,100363.03
2022-12-03T05:07:11.650Z,100358.47
2022-12-03T05:13:48.147Z,100337.03
2022-12-03T05:16:38.925Z,100350.09
2022-12-03T05:19:14.432Z,100340.41
2022-12-03T05:22:55.050Z,100352.22
2022-12-03T05:25:48.997Z,100353.47
2022-12-03T05:32:03.451Z,100331.66
2022-12-03T05:34:31.128Z,100342.19
2022-12-03T05:37:25.144Z,100350.81
2022-12-03T05:59:14.843Z,100375.03
2022-12-03T06:01:45.782Z,100356.50
2022-12-03T06:05:05.610Z,100379.88
2022-12-03T06:16:51.277Z,100386.78
2022-12-03T06:20:34.151Z,100393.28
2022-12-03T06:23:15.737Z,100382.16
2022-12-03T06:25:59.467Z,100378.75
2022-12-03T06:28:27.705Z,100372.84
2022-12-03T06:30:58.970Z,100391.63
2022-12-03T06:33:39.098Z,100402.13
2022-12-03T06:36:22.606Z,100403.84
2022-12-03T06:38:53.881Z,100377.94
2022-12-03T06:41:38.621Z,100376.69
2022-12-03T06:44:10.407Z,100391.63
2022-12-03T06:46:49.575Z,100397.50
2022-12-03T06:49:49.895Z,100395.22
2022-12-03T06:52:23.625Z,100398.56
2022-12-03T06:54:52.139Z,100383.41
2022-12-03T06:57:28.108Z,100404.91
2022-12-03T07:00:08.181Z,100378.81
2022-12-03T07:02:56.102Z,100378.41
2022-12-03T07:17:07.255Z,100401.38
2022-12-03T07:19:51.563Z,100401.16
2022-12-03T07:22:40.031Z,100382.81
2022-12-03T07:25:23.057Z,100377.75
2022-12-03T07:27:55.547Z,100386.22
2022-12-03T07:30:48.334Z,100387.72
2022-12-03T07:33:29.065Z,100407.28
2022-12-03T07:36:01.925Z,100391.09
2022-12-03T07:38:42.963Z,100411.28
2022-12-03T07:41:14.725Z,100415.28
2022-12-03T07:43:54.112Z,100415.28
2022-12-03T07:46:22.455Z,100409.41
2022-12-03T07:49:24.125Z,100412.13
2022-12-03T07:52:14.995Z,100414.84
2022-12-03T07:55:10.158Z,100419.25
2022-12-03T07:57:38.902Z,100397.31
2022-12-03T08:00:32.316Z,100415.00
2022-12-03T08:03:06.869Z,100394.53
2022-12-03T08:05:41.767Z,100406.53
2022-12-03T08:08:10.770Z,100397.69
2022-12-03T08:10:51.999Z,100417.25
2022-12-03T08:13:23.340Z,100407.34
2022-12-03T08:16:01.704Z,100416.59
2022-12-03T08:18:45.561Z,100428.84
2022-12-03T08:24:40.977Z,100412.81
2022-12-03T08:27:19.596Z,100433.00
2022-12-03T08:30:01.232Z,100438.06
2022-12-03T08:32:38.390Z,100425.81
2022-12-03T08:35:28.690Z,100418.84
2022-12-03T08:38:03.550Z,100418.63
2022-12-03T08:40:44.917Z,100438.00
2022-12-03T08:43:27.299Z,100437.78
2022-12-03T08:46:22.575Z,100428.28
2022-12-03T08:49:00.848Z,100413.09
2022-12-03T08:51:31.502Z,100417.72
2022-12-03T08:54:14.003Z,100421.88
2022-12-03T09:01:28.386Z,100428.50
2022-12-03T09:07:39.417Z,100429.03
2022-12-03T09:10:10.619Z,100433.22
2022-12-03T09:12:44.965Z,100449.81
2022-12-03T09:15:13.007Z,100445.16
2022-12-03T09:18:35.254Z,100450.78
2022-12-03T09:21:21.343Z,100453.47
2022-12-03T09:24:34.494Z,100454.25
2022-12-03T10:14:05.893Z,100469.22
2022-12-03T10:16:54.512Z,100472.13
2022-12-03T10:19:32.255Z,100465.53
2022-12-03T10:22:01.958Z,100468.56
2022-12-03T10:24:57.647Z,100468.50
2022-12-03T10:28:19.694Z,100473.50
2022-12-03T10:35:18.074Z,100465.63
2022-12-03T10:42:32.313Z,100461.13
2022-12-03T10:45:46.620Z,100462.13
2022-12-03T10:48:29.603Z,100461.19
2022-12-03T10:53:53.576Z,100433.50
2022-12-03T11:03:48.605Z,100433.78
2022-12-03T11:06:27.093Z,100444.94
2022-12-03T11:09:25.923Z,100436.66
2022-12-03T11:12:21.223Z,100418.13
2022-12-03T11:15:16.306Z,100444.47
2022-12-03T11:18:05.594Z,100442.63
2022-12-03T11:21:21.669Z,100439.16
2022-12-03T11:24:19.421Z,100438.06
2022-12-03T11:30:49.607Z,100428.59
2022-12-03T11:33:57.456Z,100431.44
2022-12-03T11:40:39.813Z,100403.13
2022-12-03T11:46:48.570Z,100406.03
2022-12-03T11:49:36.781Z,100414.16
2022-12-03T11:56:26.582Z,100371.06
2022-12-03T12:02:50.743Z,100387.44
2022-12-03T12:05:59.838Z,100391.19
2022-12-03T12:08:29.479Z,100372.28
2022-12-03T12:11:34.356Z,100386.66
2022-12-03T12:33:17.215Z,100374.72
2022-12-03T12:35:45.891Z,100364.19
2022-12-03T12:38:22.653Z,100349.00
2022-12-03T12:40:55.986Z,100359.28
2022-12-03T12:43:25.880Z,100344.78
2022-12-03T12:46:46.712Z,100358.31
2022-12-03T12:49:11.885Z,100346.84
2022-12-03T12:51:46.534Z,100354.50
2022-12-03T12:54:15.397Z,100360.47
2022-12-03T12:56:50.804Z,100355.56
2022-12-03T12:59:23.390Z,100356.28
2022-12-03T13:01:58.151Z,100361.94
2022-12-03T13:04:26.701Z,100350.53
2022-12-03T13:07:00.249Z,100343.47
2022-12-03T13:09:30.282Z,100352.81
2022-12-03T13:12:04.817Z,100359.75
2022-12-03T13:14:40.910Z,100366.69
2022-12-03T13:17:33.322Z,100361.41
2022-12-03T13:20:17.952Z,100368.63
2022-12-03T13:22:57.666Z,100372.78
2022-12-03T13:26:00.225Z,100373.00
2022-12-03T13:28:27.229Z,100365.31
2022-12-03T13:30:54.724Z,100362.03
2022-12-03T13:33:34.756Z,100365.84
2022-12-03T13:36:13.868Z,100359.59
2022-12-03T13:38:42.973Z,100353.00
2022-12-03T13:41:38.379Z,100357.34
2022-12-03T13:44:33.039Z,100346.41
2022-12-03T13:47:53.531Z,100350.75
2022-12-03T13:50:41.699Z,100337.47
2022-12-03T13:53:34.679Z,100334.25
2022-12-03T13:56:42.514Z,100340.88
2022-12-03T13:59:24.413Z,100334.22
2022-12-03T14:01:53.608Z,100330.69
2022-12-03T14:04:22.741Z,100323.91
2022-12-03T14:06:50.400Z,100324.75
2022-12-03T14:09:27.088Z,100330.75
2022-12-03T14:12:20.192Z,100325.47
2022-12-03T14:14:55.019Z,100329.56
2022-12-03T14:17:22.599Z,100321.41
2022-12-03T14:20:08.794Z,100324.66
2022-12-03T14:22:41.229Z,100325.72
2022-12-03T14:25:11.285Z,100331.94
2022-12-03T14:27:44.751Z,100314.94
2022-12-03T14:30:17.204Z,100320.44
2022-12-03T14:32:47.000Z,100328.84
2022-12-03T14:35:21.690Z,100325.59
2022-12-03T14:37:50.778Z,100323.19
2022-12-03T14:40:22.010Z,100324.19
2022-12-03T14:42:56.100Z,100331.84
2022-12-03T14:45:28.082Z,100314.81
2022-12-03T14:47:55.513Z,100318.88
2022-12-03T14:50:24.133Z,100306.28
2022-12-03T14:52:52.743Z,100302.34
2022-12-03T14:55:20.419Z,100295.75
2022-12-03T14:57:48.095Z,100313.69
2022-12-03T15:00:18.983Z,100313.22
2022-12-03T15:02:47.328Z,100305.00
2022-12-03T15:05:22.074Z,100306.53
2022-12-03T15:08:01.726Z,100308.63
2022-12-03T15:10:30.322Z,100290.50
2022-12-03T15:12:57.920Z,100299.41
2022-12-03T15:15:26.559Z,100293.06
2022-12-03T15:17:55.303Z,100304.72
2022-12-03T15:20:30.321Z,100287.88
2022-12-03T15:22:57.903Z,100287.63
2022-12-03T15:25:25.957Z,100292.47
2022-12-03T15:27:54.642Z,100298.94
2022-12-03T15:30:22.406Z,100295.06
2022-12-03T15:32:52.589Z,100304.56
2022-12-03T15:35:21.813Z,100299.53
2022-12-03T15:37:54.561Z,100302.00
2022-12-03T15:40:25.368Z,100299.47
2022-12-03T15:42:54.130Z,100303.91
2022-12-03T15:45:23.696Z,100312.09
2022-12-03T15:47:52.257Z,100317.75
2022-12-03T15:50:20.102Z,100317.91
2022-12-03T15:52:49.910Z,100307.75
2022-12-03T15:55:24.670Z,100309.31
2022-12-03T15:58:00.750Z,100321.09
2022-12-03T16:00:29.488Z,100316.56
2022-12-03T16:02:56.994Z,100324.50
2022-12-03T16:05:24.531Z,100331.47
2022-12-03T16:07:52.342Z,100335.91
2022-12-03T16:10:26.184Z,100331.34
2022-12-03T16:12:53.810Z,100325.47
2022-12-03T16:15:27.628Z,100338.06
2022-12-03T16:17:55.555Z,100343.47
2022-12-03T16:20:25.445Z,100334.31
2022-12-03T16:22:52.976Z,100334.03
2022-12-03T16:25:20.502Z,100343.38
2022-12-03T16:27:53.322Z,100345.06
2022-12-03T16:30:35.440Z,100348.53
2022-12-03T16:33:04.538Z,100347.78
2022-12-03T16:35:33.145Z,100344.06
2022-12-03T16:38:12.829Z,100345.13
2022-12-03T16:40:47.460Z,100337.81
2022-12-03T16:43:15.930Z,100347.53
2022-12-03T16:46:10.448Z,100339.56
2022-12-03T16:48:41.395Z,100339.56
2022-12-03T16:51:10.474Z,100329.53
2022-12-03T16:53:39.234Z,100339.69
2022-12-03T16:56:13.781Z,100337.25
2022-12-03T16:58:42.447Z,100337.25
2022-12-03T17:01:11.368Z,100318.19
2022-12-03T17:03:39.967Z,100322.84
2022-12-03T17:06:09.687Z,100322.09
2022-12-03T17:08:49.118Z,100324.84
2022-12-03T17:11:28.601Z,100307.22
2022-12-03T17:13:57.456Z,100315.94
2022-12-03T17:16:26.223Z,100331.38
2022-12-03T17:18:59.893Z,100319.16
2022-12-03T17:21:32.140Z,100338.16
2022-12-03T17:24:02.407Z,100337.78
2022-12-03T17:26:31.914Z,100333.81
2022-12-03T17:29:06.607Z,100338.25
2022-12-03T17:31:40.020Z,100338.94
2022-12-03T17:34:11.755Z,100340.84
2022-12-03T17:36:41.988Z,100340.50
2022-12-03T18:14:14.973Z,100361.44
2022-12-03T18:16:44.804Z,100348.00
2022-12-03T18:19:19.851Z,100356.00
2022-12-03T18:21:54.448Z,100353.25
2022-12-03T18:24:29.692Z,100366.78
2022-12-03T18:27:06.967Z,100367.00
2022-12-03T18:29:37.420Z,100369.63
2022-12-03T18:32:05.324Z,100380.00
2022-12-03T18:34:34.024Z,100389.44
2022-12-03T18:37:33.378Z,100392.81
2022-12-03T18:40:40.527Z,100392.41
2022-12-03T18:43:14.187Z,100385.84
2022-12-03T18:45:52.440Z,100392.69
2022-12-03T18:48:28.149Z,100392.91
2022-12-03T18:51:32.168Z,100383.81
2022-12-03T18:54:15.348Z,100386.78
2022-12-03T18:56:48.981Z,100375.63
2022-12-03T18:59:16.827Z,100369.94
2022-12-03T19:01:44.630Z,100389.97
2022-12-03T19:04:14.350Z,100370.03
2022-12-03T19:06:50.561Z,100389.81
2022-12-03T19:09:53.594Z,100385.59
2022-12-03T19:12:21.614Z,100379.50
2022-12-03T19:14:49.389Z,100366.06
2022-12-03T19:17:40.470Z,100377.03
2022-12-03T19:20:41.921Z,100372.84
2022-12-03T19:23:16.548Z,100373.28
2022-12-03T19:26:08.416Z,100382.75
2022-12-03T19:29:41.615Z,100380.00
2022-12-03T19:35:43.683Z,100370.56
